sensor_id;sensor_type;location;lat;lon;timestamp;P1;durP1;ratioP1;P2;durP2;ratioP2
24173;SDS011;12324;48.146;11.502;2024-03-02T00:01:36;22.30;;;11.55;;
24173;SDS011;12324;48.146;11.502;2024-03-02T00:04:04;20.10;;;13.00;;
24173;SDS011;12324;48.146;11.502;2024-03-02T00:06:33;22.08;;;13.25;;
24173;SDS011;12324;48.146;11.502;2024-03-02T00:09:00;20.70;;;12.88;;
24173;SDS011;12324;48.146;11.502;2024-03-02T00:11:27;19.38;;;12.07;;
24173;SDS011;12324;48.146;11.502;2024-03-02T00:13:54;22.52;;;13.80;;
24173;SDS011;12324;48.146;11.502;2024-03-02T00:16:22;22.48;;;13.55;;
24173;SDS011;12324;48.146;11.502;2024-03-02T00:18:50;19.67;;;12.55;;
24173;SDS011;12324;48.146;11.502;2024-03-02T00:21:17;22.15;;;14.27;;
24173;SDS011;12324;48.146;11.502;2024-03-02T00:23:48;22.00;;;12.98;;
24173;SDS011;12324;48.146;11.502;2024-03-02T00:26:18;21.17;;;14.02;;
24173;SDS011;12324;48.146;11.502;2024-03-02T00:28:45;19.38;;;12.38;;
24173;SDS011;12324;48.146;11.502;2024-03-02T00:31:12;21.35;;;13.57;;
24173;SDS011;12324;48.146;11.502;2024-03-02T00:33:47;20.27;;;13.07;;
24173;SDS011;12324;48.146;11.502;2024-03-02T00:36:15;21.38;;;14.27;;
24173;SDS011;12324;48.146;11.502;2024-03-02T00:38:47;20.05;;;12.75;;
24173;SDS011;12324;48.146;11.502;2024-03-02T00:41:15;20.63;;;13.05;;
24173;SDS011;12324;48.146;11.502;2024-03-02T00:43:45;23.98;;;13.25;;
24173;SDS011;12324;48.146;11.502;2024-03-02T00:46:20;22.63;;;12.90;;
24173;SDS011;12324;48.146;11.502;2024-03-02T00:48:51;20.50;;;13.18;;
24173;SDS011;12324;48.146;11.502;2024-03-02T00:51:21;20.63;;;13.05;;
24173;SDS011;12324;48.146;11.502;2024-03-02T00:53:49;19.40;;;12.65;;
24173;SDS011;12324;48.146;11.502;2024-03-02T00:56:16;23.38;;;14.07;;
24173;SDS011;12324;48.146;11.502;2024-03-02T00:58:44;19.58;;;13.23;;
24173;SDS011;12324;48.146;11.502;2024-03-02T01:01:11;19.60;;;11.98;;
24173;SDS011;12324;48.146;11.502;2024-03-02T01:03:38;20.00;;;13.07;;
24173;SDS011;12324;48.146;11.502;2024-03-02T01:06:05;21.35;;;14.18;;
24173;SDS011;12324;48.146;11.502;2024-03-02T01:08:36;22.65;;;13.43;;
24173;SDS011;12324;48.146;11.502;2024-03-02T01:11:03;22.23;;;13.90;;
24173;SDS011;12324;48.146;11.502;2024-03-02T01:13:31;21.65;;;13.45;;
24173;SDS011;12324;48.146;11.502;2024-03-02T01:15:58;19.98;;;13.05;;
24173;SDS011;12324;48.146;11.502;2024-03-02T01:18:25;22.38;;;12.52;;
24173;SDS011;12324;48.146;11.502;2024-03-02T01:20:53;21.95;;;13.15;;
24173;SDS011;12324;48.146;11.502;2024-03-02T01:23:25;20.38;;;13.20;;
24173;SDS011;12324;48.146;11.502;2024-03-02T01:25:52;20.77;;;13.60;;
24173;SDS011;12324;48.146;11.502;2024-03-02T01:28:19;21.40;;;12.88;;
24173;SDS011;12324;48.146;11.502;2024-03-02T01:30:47;19.80;;;13.38;;
24173;SDS011;12324;48.146;11.502;2024-03-02T01:33:14;20.33;;;13.02;;
24173;SDS011;12324;48.146;11.502;2024-03-02T01:35:42;20.95;;;13.07;;
24173;SDS011;12324;48.146;11.502;2024-03-02T01:38:08;24.60;;;14.00;;
24173;SDS011;12324;48.146;11.502;2024-03-02T01:40:36;21.30;;;13.50;;
24173;SDS011;12324;48.146;11.502;2024-03-02T01:43:06;21.10;;;13.73;;
24173;SDS011;12324;48.146;11.502;2024-03-02T01:45:34;20.67;;;13.23;;
24173;SDS011;12324;48.146;11.502;2024-03-02T01:48:04;20.85;;;13.20;;
24173;SDS011;12324;48.146;11.502;2024-03-02T01:50:33;21.35;;;13.48;;
24173;SDS011;12324;48.146;11.502;2024-03-02T01:53:00;20.48;;;13.32;;
24173;SDS011;12324;48.146;11.502;2024-03-02T01:55:29;21.52;;;14.07;;
24173;SDS011;12324;48.146;11.502;2024-03-02T01:57:57;20.65;;;13.40;;
24173;SDS011;12324;48.146;11.502;2024-03-02T02:00:24;22.17;;;14.95;;
24173;SDS011;12324;48.146;11.502;2024-03-02T02:02:53;20.50;;;13.25;;
24173;SDS011;12324;48.146;11.502;2024-03-02T02:05:20;22.52;;;14.00;;
24173;SDS011;12324;48.146;11.502;2024-03-02T02:07:48;23.95;;;14.20;;
24173;SDS011;12324;48.146;11.502;2024-03-02T02:10:15;20.45;;;13.35;;
24173;SDS011;12324;48.146;11.502;2024-03-02T02:12:42;22.70;;;13.63;;
24173;SDS011;12324;48.146;11.502;2024-03-02T02:15:24;20.13;;;12.30;;
24173;SDS011;12324;48.146;11.502;2024-03-02T02:17:55;22.67;;;13.77;;
24173;SDS011;12324;48.146;11.502;2024-03-02T02:20:23;21.05;;;14.05;;
24173;SDS011;12324;48.146;11.502;2024-03-02T02:25:28;23.15;;;13.02;;
24173;SDS011;12324;48.146;11.502;2024-03-02T02:27:56;20.02;;;12.43;;
24173;SDS011;12324;48.146;11.502;2024-03-02T02:30:25;22.50;;;14.55;;
24173;SDS011;12324;48.146;11.502;2024-03-02T02:32:53;20.17;;;13.02;;
24173;SDS011;12324;48.146;11.502;2024-03-02T02:35:21;21.27;;;13.50;;
24173;SDS011;12324;48.146;11.502;2024-03-02T02:37:48;22.40;;;13.27;;
24173;SDS011;12324;48.146;11.502;2024-03-02T02:40:16;20.30;;;12.95;;
24173;SDS011;12324;48.146;11.502;2024-03-02T02:42:45;22.35;;;14.05;;
24173;SDS011;12324;48.146;11.502;2024-03-02T02:45:12;21.20;;;12.93;;
24173;SDS011;12324;48.146;11.502;2024-03-02T02:47:41;21.52;;;14.32;;
24173;SDS011;12324;48.146;11.502;2024-03-02T02:50:08;21.70;;;13.80;;
24173;SDS011;12324;48.146;11.502;2024-03-02T02:52:37;21.92;;;13.63;;
24173;SDS011;12324;48.146;11.502;2024-03-02T02:55:06;22.63;;;14.15;;
24173;SDS011;12324;48.146;11.502;2024-03-02T02:57:35;21.75;;;13.88;;
24173;SDS011;12324;48.146;11.502;2024-03-02T03:00:07;22.33;;;13.60;;
24173;SDS011;12324;48.146;11.502;2024-03-02T03:02:45;20.80;;;13.20;;
24173;SDS011;12324;48.146;11.502;2024-03-02T03:05:16;22.98;;;13.68;;
24173;SDS011;12324;48.146;11.502;2024-03-02T03:07:43;21.33;;;14.15;;
24173;SDS011;12324;48.146;11.502;2024-03-02T03:10:11;22.77;;;14.27;;
24173;SDS011;12324;48.146;11.502;2024-03-02T03:12:41;21.70;;;13.52;;
24173;SDS011;12324;48.146;11.502;2024-03-02T03:15:09;23.55;;;14.30;;
24173;SDS011;12324;48.146;11.502;2024-03-02T03:17:38;20.50;;;13.65;;
24173;SDS011;12324;48.146;11.502;2024-03-02T03:20:05;21.48;;;14.23;;
24173;SDS011;12324;48.146;11.502;2024-03-02T03:22:36;21.67;;;13.98;;
24173;SDS011;12324;48.146;11.502;2024-03-02T03:25:04;26.23;;;17.15;;
24173;SDS011;12324;48.146;11.502;2024-03-02T03:27:32;23.50;;;15.38;;
24173;SDS011;12324;48.146;11.502;2024-03-02T03:29:59;22.42;;;13.85;;
24173;SDS011;12324;48.146;11.502;2024-03-02T03:32:26;23.80;;;14.32;;
24173;SDS011;12324;48.146;11.502;2024-03-02T03:34:52;23.75;;;14.38;;
24173;SDS011;12324;48.146;11.502;2024-03-02T03:37:19;25.05;;;14.77;;
24173;SDS011;12324;48.146;11.502;2024-03-02T03:39:46;24.10;;;14.63;;
24173;SDS011;12324;48.146;11.502;2024-03-02T03:42:13;24.00;;;14.30;;
24173;SDS011;12324;48.146;11.502;2024-03-02T03:44:40;24.48;;;13.85;;
24173;SDS011;12324;48.146;11.502;2024-03-02T03:47:07;24.30;;;15.50;;
24173;SDS011;12324;48.146;11.502;2024-03-02T03:49:34;24.02;;;15.23;;
24173;SDS011;12324;48.146;11.502;2024-03-02T03:52:01;26.52;;;16.35;;
24173;SDS011;12324;48.146;11.502;2024-03-02T03:54:28;24.38;;;15.68;;
24173;SDS011;12324;48.146;11.502;2024-03-02T03:56:55;24.58;;;17.05;;
24173;SDS011;12324;48.146;11.502;2024-03-02T03:59:22;27.52;;;16.73;;
24173;SDS011;12324;48.146;11.502;2024-03-02T04:01:50;29.55;;;19.77;;
24173;SDS011;12324;48.146;11.502;2024-03-02T04:04:17;26.05;;;17.85;;
24173;SDS011;12324;48.146;11.502;2024-03-02T04:06:43;26.20;;;17.08;;
24173;SDS011;12324;48.146;11.502;2024-03-02T04:09:14;25.85;;;18.17;;
24173;SDS011;12324;48.146;11.502;2024-03-02T04:11:41;27.23;;;18.23;;
24173;SDS011;12324;48.146;11.502;2024-03-02T04:14:07;25.45;;;17.08;;
24173;SDS011;12324;48.146;11.502;2024-03-02T04:16:35;26.67;;;17.65;;
24173;SDS011;12324;48.146;11.502;2024-03-02T04:19:05;26.30;;;16.55;;
24173;SDS011;12324;48.146;11.502;2024-03-02T04:21:32;26.40;;;16.33;;
24173;SDS011;12324;48.146;11.502;2024-03-02T04:23:58;24.35;;;14.57;;
24173;SDS011;12324;48.146;11.502;2024-03-02T04:26:26;25.20;;;15.40;;
24173;SDS011;12324;48.146;11.502;2024-03-02T04:28:53;26.88;;;16.85;;
24173;SDS011;12324;48.146;11.502;2024-03-02T04:31:20;24.92;;;16.45;;
24173;SDS011;12324;48.146;11.502;2024-03-02T04:33:47;24.42;;;15.88;;
24173;SDS011;12324;48.146;11.502;2024-03-02T04:36:15;26.63;;;16.95;;
24173;SDS011;12324;48.146;11.502;2024-03-02T04:38:42;25.02;;;16.17;;
24173;SDS011;12324;48.146;11.502;2024-03-02T04:41:09;26.08;;;16.70;;
24173;SDS011;12324;48.146;11.502;2024-03-02T04:43:35;22.67;;;14.35;;
24173;SDS011;12324;48.146;11.502;2024-03-02T04:46:02;25.40;;;15.52;;
24173;SDS011;12324;48.146;11.502;2024-03-02T04:48:33;24.98;;;16.42;;
24173;SDS011;12324;48.146;11.502;2024-03-02T04:51:01;24.45;;;16.25;;
24173;SDS011;12324;48.146;11.502;2024-03-02T04:53:29;23.42;;;14.65;;
24173;SDS011;12324;48.146;11.502;2024-03-02T04:55:55;23.63;;;15.55;;
24173;SDS011;12324;48.146;11.502;2024-03-02T04:58:34;25.88;;;16.63;;
24173;SDS011;12324;48.146;11.502;2024-03-02T05:01:01;23.83;;;15.05;;
24173;SDS011;12324;48.146;11.502;2024-03-02T05:03:32;24.13;;;16.20;;
24173;SDS011;12324;48.146;11.502;2024-03-02T05:06:01;25.20;;;15.25;;
24173;SDS011;12324;48.146;11.502;2024-03-02T05:08:27;25.67;;;17.25;;
24173;SDS011;12324;48.146;11.502;2024-03-02T05:10:54;26.95;;;16.95;;
24173;SDS011;12324;48.146;11.502;2024-03-02T05:13:42;25.40;;;16.60;;
24173;SDS011;12324;48.146;11.502;2024-03-02T05:16:08;28.33;;;17.65;;
24173;SDS011;12324;48.146;11.502;2024-03-02T05:18:36;26.75;;;17.20;;
24173;SDS011;12324;48.146;11.502;2024-03-02T05:21:04;24.83;;;17.13;;
24173;SDS011;12324;48.146;11.502;2024-03-02T05:23:31;26.60;;;16.30;;
24173;SDS011;12324;48.146;11.502;2024-03-02T05:25:57;25.23;;;16.70;;
24173;SDS011;12324;48.146;11.502;2024-03-02T05:28:25;23.70;;;16.48;;
24173;SDS011;12324;48.146;11.502;2024-03-02T05:30:52;25.67;;;16.80;;
24173;SDS011;12324;48.146;11.502;2024-03-02T05:33:19;26.02;;;18.23;;
24173;SDS011;12324;48.146;11.502;2024-03-02T05:35:49;26.23;;;18.35;;
24173;SDS011;12324;48.146;11.502;2024-03-02T05:38:18;28.10;;;18.08;;
24173;SDS011;12324;48.146;11.502;2024-03-02T05:40:45;26.02;;;17.92;;
24173;SDS011;12324;48.146;11.502;2024-03-02T05:43:12;26.17;;;17.70;;
24173;SDS011;12324;48.146;11.502;2024-03-02T05:45:39;27.10;;;19.08;;
24173;SDS011;12324;48.146;11.502;2024-03-02T05:48:07;27.27;;;18.30;;
24173;SDS011;12324;48.146;11.502;2024-03-02T05:50:35;25.48;;;17.30;;
24173;SDS011;12324;48.146;11.502;2024-03-02T05:53:02;25.10;;;17.20;;
24173;SDS011;12324;48.146;11.502;2024-03-02T05:55:29;26.80;;;18.25;;
24173;SDS011;12324;48.146;11.502;2024-03-02T05:57:57;26.80;;;18.83;;
24173;SDS011;12324;48.146;11.502;2024-03-02T06:00:33;25.40;;;17.25;;
24173;SDS011;12324;48.146;11.502;2024-03-02T06:03:00;25.05;;;16.80;;
24173;SDS011;12324;48.146;11.502;2024-03-02T06:05:26;26.98;;;19.13;;
24173;SDS011;12324;48.146;11.502;2024-03-02T06:07:53;28.17;;;17.95;;
24173;SDS011;12324;48.146;11.502;2024-03-02T06:10:21;29.40;;;18.90;;
24173;SDS011;12324;48.146;11.502;2024-03-02T06:12:48;26.98;;;19.08;;
24173;SDS011;12324;48.146;11.502;2024-03-02T06:15:15;29.20;;;19.60;;
24173;SDS011;12324;48.146;11.502;2024-03-02T06:17:42;27.23;;;19.45;;
24173;SDS011;12324;48.146;11.502;2024-03-02T06:20:09;27.15;;;17.85;;
24173;SDS011;12324;48.146;11.502;2024-03-02T06:22:37;30.70;;;19.10;;
24173;SDS011;12324;48.146;11.502;2024-03-02T06:25:05;29.20;;;19.25;;
24173;SDS011;12324;48.146;11.502;2024-03-02T06:27:32;26.75;;;18.30;;
24173;SDS011;12324;48.146;11.502;2024-03-02T06:29:59;29.15;;;20.60;;
24173;SDS011;12324;48.146;11.502;2024-03-02T06:32:27;30.25;;;19.35;;
24173;SDS011;12324;48.146;11.502;2024-03-02T06:34:54;27.60;;;19.58;;
24173;SDS011;12324;48.146;11.502;2024-03-02T06:37:21;25.65;;;17.83;;
24173;SDS011;12324;48.146;11.502;2024-03-02T06:39:48;25.55;;;17.77;;
24173;SDS011;12324;48.146;11.502;2024-03-02T06:42:15;29.40;;;18.15;;
24173;SDS011;12324;48.146;11.502;2024-03-02T06:44:42;28.63;;;18.55;;
24173;SDS011;12324;48.146;11.502;2024-03-02T06:47:09;29.67;;;18.17;;
24173;SDS011;12324;48.146;11.502;2024-03-02T06:49:35;30.02;;;18.55;;
24173;SDS011;12324;48.146;11.502;2024-03-02T06:52:02;28.05;;;18.13;;
24173;SDS011;12324;48.146;11.502;2024-03-02T06:54:29;28.65;;;18.67;;
24173;SDS011;12324;48.146;11.502;2024-03-02T06:56:56;26.65;;;17.80;;
24173;SDS011;12324;48.146;11.502;2024-03-02T06:59:23;26.73;;;18.42;;
24173;SDS011;12324;48.146;11.502;2024-03-02T07:01:50;27.80;;;18.55;;
24173;SDS011;12324;48.146;11.502;2024-03-02T07:04:17;30.63;;;19.40;;
24173;SDS011;12324;48.146;11.502;2024-03-02T07:06:44;32.47;;;21.00;;
24173;SDS011;12324;48.146;11.502;2024-03-02T07:09:11;31.80;;;20.48;;
24173;SDS011;12324;48.146;11.502;2024-03-02T07:11:38;31.98;;;21.20;;
24173;SDS011;12324;48.146;11.502;2024-03-02T07:14:05;29.52;;;18.83;;
24173;SDS011;12324;48.146;11.502;2024-03-02T07:16:33;29.85;;;19.85;;
24173;SDS011;12324;48.146;11.502;2024-03-02T07:19:01;27.55;;;18.45;;
24173;SDS011;12324;48.146;11.502;2024-03-02T07:21:28;29.92;;;18.05;;
24173;SDS011;12324;48.146;11.502;2024-03-02T07:23:56;30.30;;;20.00;;
24173;SDS011;12324;48.146;11.502;2024-03-02T07:26:23;29.20;;;19.38;;
24173;SDS011;12324;48.146;11.502;2024-03-02T07:28:53;29.33;;;19.02;;
24173;SDS011;12324;48.146;11.502;2024-03-02T07:31:20;30.52;;;20.95;;
24173;SDS011;12324;48.146;11.502;2024-03-02T07:33:46;30.83;;;20.08;;
24173;SDS011;12324;48.146;11.502;2024-03-02T07:36:14;32.40;;;19.65;;
24173;SDS011;12324;48.146;11.502;2024-03-02T07:38:41;30.27;;;21.15;;
24173;SDS011;12324;48.146;11.502;2024-03-02T07:41:11;27.85;;;18.52;;
24173;SDS011;12324;48.146;11.502;2024-03-02T07:43:41;33.67;;;21.10;;
24173;SDS011;12324;48.146;11.502;2024-03-02T07:46:08;32.15;;;22.77;;
24173;SDS011;12324;48.146;11.502;2024-03-02T07:48:35;29.58;;;20.77;;
24173;SDS011;12324;48.146;11.502;2024-03-02T07:51:02;34.50;;;21.73;;
24173;SDS011;12324;48.146;11.502;2024-03-02T07:53:29;30.15;;;20.83;;
24173;SDS011;12324;48.146;11.502;2024-03-02T07:55:57;28.38;;;20.17;;
24173;SDS011;12324;48.146;11.502;2024-03-02T07:58:28;31.63;;;21.58;;
24173;SDS011;12324;48.146;11.502;2024-03-02T08:00:57;37.92;;;25.33;;
24173;SDS011;12324;48.146;11.502;2024-03-02T08:03:24;33.60;;;22.90;;
24173;SDS011;12324;48.146;11.502;2024-03-02T08:05:51;32.92;;;22.23;;
24173;SDS011;12324;48.146;11.502;2024-03-02T08:08:19;32.47;;;23.17;;
24173;SDS011;12324;48.146;11.502;2024-03-02T08:10:46;31.67;;;21.35;;
24173;SDS011;12324;48.146;11.502;2024-03-02T08:13:13;29.23;;;18.48;;
24173;SDS011;12324;48.146;11.502;2024-03-02T08:15:40;27.25;;;16.75;;
24173;SDS011;12324;48.146;11.502;2024-03-02T08:18:08;25.88;;;16.83;;
24173;SDS011;12324;48.146;11.502;2024-03-02T08:20:36;25.10;;;13.73;;
24173;SDS011;12324;48.146;11.502;2024-03-02T08:23:03;22.75;;;13.55;;
24173;SDS011;12324;48.146;11.502;2024-03-02T08:25:30;21.35;;;12.90;;
24173;SDS011;12324;48.146;11.502;2024-03-02T08:27:58;21.65;;;12.68;;
24173;SDS011;12324;48.146;11.502;2024-03-02T08:30:25;22.65;;;13.32;;
24173;SDS011;12324;48.146;11.502;2024-03-02T08:32:52;22.17;;;11.65;;
24173;SDS011;12324;48.146;11.502;2024-03-02T08:35:19;21.95;;;12.10;;
24173;SDS011;12324;48.146;11.502;2024-03-02T08:37:48;19.65;;;11.25;;
24173;SDS011;12324;48.146;11.502;2024-03-02T08:40:15;22.05;;;11.63;;
24173;SDS011;12324;48.146;11.502;2024-03-02T08:42:44;18.88;;;10.38;;
24173;SDS011;12324;48.146;11.502;2024-03-02T08:45:12;19.35;;;11.50;;
24173;SDS011;12324;48.146;11.502;2024-03-02T08:47:39;18.75;;;9.43;;
24173;SDS011;12324;48.146;11.502;2024-03-02T08:50:07;26.27;;;11.15;;
24173;SDS011;12324;48.146;11.502;2024-03-02T08:52:35;18.23;;;10.70;;
24173;SDS011;12324;48.146;11.502;2024-03-02T08:55:02;19.17;;;10.15;;
24173;SDS011;12324;48.146;11.502;2024-03-02T08:57:29;20.33;;;10.40;;
24173;SDS011;12324;48.146;11.502;2024-03-02T08:59:57;20.15;;;9.93;;
24173;SDS011;12324;48.146;11.502;2024-03-02T09:02:24;18.35;;;10.57;;
24173;SDS011;12324;48.146;11.502;2024-03-02T09:04:51;19.50;;;10.40;;
24173;SDS011;12324;48.146;11.502;2024-03-02T09:07:18;19.55;;;10.20;;
24173;SDS011;12324;48.146;11.502;2024-03-02T09:09:46;17.98;;;10.27;;
24173;SDS011;12324;48.146;11.502;2024-03-02T09:12:13;20.50;;;11.85;;
24173;SDS011;12324;48.146;11.502;2024-03-02T09:14:40;21.75;;;12.98;;
24173;SDS011;12324;48.146;11.502;2024-03-02T09:17:07;19.45;;;12.32;;
24173;SDS011;12324;48.146;11.502;2024-03-02T09:19:37;19.50;;;12.13;;
24173;SDS011;12324;48.146;11.502;2024-03-02T09:22:04;17.73;;;10.30;;
24173;SDS011;12324;48.146;11.502;2024-03-02T09:24:32;20.92;;;11.32;;
24173;SDS011;12324;48.146;11.502;2024-03-02T09:26:59;22.70;;;10.73;;
24173;SDS011;12324;48.146;11.502;2024-03-02T09:29:27;17.45;;;10.15;;
24173;SDS011;12324;48.146;11.502;2024-03-02T09:31:54;18.90;;;10.50;;
24173;SDS011;12324;48.146;11.502;2024-03-02T09:34:21;21.13;;;13.18;;
24173;SDS011;12324;48.146;11.502;2024-03-02T09:36:50;20.52;;;12.65;;
24173;SDS011;12324;48.146;11.502;2024-03-02T09:39:17;20.50;;;13.30;;
24173;SDS011;12324;48.146;11.502;2024-03-02T09:41:44;21.60;;;13.23;;
24173;SDS011;12324;48.146;11.502;2024-03-02T09:44:12;21.13;;;13.60;;
24173;SDS011;12324;48.146;11.502;2024-03-02T09:46:40;21.05;;;13.25;;
24173;SDS011;12324;48.146;11.502;2024-03-02T09:49:10;23.83;;;15.43;;
24173;SDS011;12324;48.146;11.502;2024-03-02T09:51:37;21.23;;;14.38;;
24173;SDS011;12324;48.146;11.502;2024-03-02T09:54:07;21.88;;;13.35;;
24173;SDS011;12324;48.146;11.502;2024-03-02T09:56:47;20.58;;;13.57;;
24173;SDS011;12324;48.146;11.502;2024-03-02T09:59:14;22.30;;;13.40;;
24173;SDS011;12324;48.146;11.502;2024-03-02T10:04:28;17.70;;;10.30;;
24173;SDS011;12324;48.146;11.502;2024-03-02T10:07:17;18.73;;;10.15;;
24173;SDS011;12324;48.146;11.502;2024-03-02T10:09:47;17.52;;;9.45;;
24173;SDS011;12324;48.146;11.502;2024-03-02T10:12:17;20.95;;;11.80;;
24173;SDS011;12324;48.146;11.502;2024-03-02T10:14:44;19.77;;;11.57;;
24173;SDS011;12324;48.146;11.502;2024-03-02T10:17:17;20.35;;;11.20;;
24173;SDS011;12324;48.146;11.502;2024-03-02T10:19:44;19.13;;;11.10;;
24173;SDS011;12324;48.146;11.502;2024-03-02T10:22:11;18.42;;;10.85;;
24173;SDS011;12324;48.146;11.502;2024-03-02T10:24:39;20.35;;;10.52;;
24173;SDS011;12324;48.146;11.502;2024-03-02T10:27:26;18.88;;;10.40;;
24173;SDS011;12324;48.146;11.502;2024-03-02T10:29:55;16.85;;;9.93;;
24173;SDS011;12324;48.146;11.502;2024-03-02T10:32:22;17.95;;;9.95;;
24173;SDS011;12324;48.146;11.502;2024-03-02T10:34:49;17.75;;;9.85;;
24173;SDS011;12324;48.146;11.502;2024-03-02T10:37:16;17.05;;;9.43;;
24173;SDS011;12324;48.146;11.502;2024-03-02T10:39:45;17.55;;;9.25;;
24173;SDS011;12324;48.146;11.502;2024-03-02T10:42:12;18.70;;;9.00;;
24173;SDS011;12324;48.146;11.502;2024-03-02T10:44:41;17.15;;;9.20;;
24173;SDS011;12324;48.146;11.502;2024-03-02T10:47:09;17.05;;;8.63;;
24173;SDS011;12324;48.146;11.502;2024-03-02T10:49:40;16.15;;;8.48;;
24173;SDS011;12324;48.146;11.502;2024-03-02T10:52:09;17.50;;;10.00;;
24173;SDS011;12324;48.146;11.502;2024-03-02T10:54:36;17.77;;;8.60;;
24173;SDS011;12324;48.146;11.502;2024-03-02T10:57:07;18.77;;;8.85;;
24173;SDS011;12324;48.146;11.502;2024-03-02T10:59:37;18.60;;;9.18;;
24173;SDS011;12324;48.146;11.502;2024-03-02T11:02:12;19.55;;;9.52;;
24173;SDS011;12324;48.146;11.502;2024-03-02T11:04:39;19.00;;;9.43;;
24173;SDS011;12324;48.146;11.502;2024-03-02T11:07:08;18.83;;;8.32;;
24173;SDS011;12324;48.146;11.502;2024-03-02T11:09:37;17.13;;;8.73;;
24173;SDS011;12324;48.146;11.502;2024-03-02T11:14:55;14.55;;;7.45;;
24173;SDS011;12324;48.146;11.502;2024-03-02T11:17:22;16.40;;;8.73;;
24173;SDS011;12324;48.146;11.502;2024-03-02T11:19:50;17.45;;;9.63;;
24173;SDS011;12324;48.146;11.502;2024-03-02T11:22:19;19.02;;;9.35;;
24173;SDS011;12324;48.146;11.502;2024-03-02T11:24:49;18.38;;;9.00;;
24173;SDS011;12324;48.146;11.502;2024-03-02T11:30:48;22.48;;;10.52;;
24173;SDS011;12324;48.146;11.502;2024-03-02T11:33:02;20.55;;;11.82;;
24173;SDS011;12324;48.146;11.502;2024-03-02T11:35:46;22.27;;;12.15;;
24173;SDS011;12324;48.146;11.502;2024-03-02T11:38:13;21.33;;;11.25;;
24173;SDS011;12324;48.146;11.502;2024-03-02T11:40:40;21.02;;;12.25;;
24173;SDS011;12324;48.146;11.502;2024-03-02T11:43:08;24.17;;;12.13;;
24173;SDS011;12324;48.146;11.502;2024-03-02T11:45:36;24.15;;;13.30;;
24173;SDS011;12324;48.146;11.502;2024-03-02T11:48:08;23.20;;;13.73;;
24173;SDS011;12324;48.146;11.502;2024-03-02T11:50:40;24.27;;;13.90;;
24173;SDS011;12324;48.146;11.502;2024-03-02T11:53:08;24.73;;;13.90;;
24173;SDS011;12324;48.146;11.502;2024-03-02T11:55:39;23.85;;;13.90;;
24173;SDS011;12324;48.146;11.502;2024-03-02T11:58:13;23.42;;;12.85;;
24173;SDS011;12324;48.146;11.502;2024-03-02T12:00:43;25.20;;;13.38;;
24173;SDS011;12324;48.146;11.502;2024-03-02T12:03:12;22.83;;;13.70;;
24173;SDS011;12324;48.146;11.502;2024-03-02T12:05:40;24.60;;;15.05;;
24173;SDS011;12324;48.146;11.502;2024-03-02T12:08:10;26.83;;;13.75;;
24173;SDS011;12324;48.146;11.502;2024-03-02T12:10:38;24.00;;;12.82;;
24173;SDS011;12324;48.146;11.502;2024-03-02T12:13:06;22.13;;;12.40;;
24173;SDS011;12324;48.146;11.502;2024-03-02T12:15:34;23.45;;;12.18;;
24173;SDS011;12324;48.146;11.502;2024-03-02T12:18:05;23.08;;;13.65;;
24173;SDS011;12324;48.146;11.502;2024-03-02T12:20:33;23.65;;;14.48;;
24173;SDS011;12324;48.146;11.502;2024-03-02T12:23:01;24.45;;;13.85;;
24173;SDS011;12324;48.146;11.502;2024-03-02T12:25:30;25.13;;;14.43;;
24173;SDS011;12324;48.146;11.502;2024-03-02T12:28:00;23.23;;;13.40;;
24173;SDS011;12324;48.146;11.502;2024-03-02T12:30:29;22.63;;;12.57;;
24173;SDS011;12324;48.146;11.502;2024-03-02T12:33:04;24.63;;;14.02;;
24173;SDS011;12324;48.146;11.502;2024-03-02T12:35:31;24.40;;;14.63;;
24173;SDS011;12324;48.146;11.502;2024-03-02T12:37:58;25.55;;;14.52;;
24173;SDS011;12324;48.146;11.502;2024-03-02T12:40:25;26.10;;;15.65;;
24173;SDS011;12324;48.146;11.502;2024-03-02T12:42:52;26.08;;;15.45;;
24173;SDS011;12324;48.146;11.502;2024-03-02T12:45:18;24.10;;;14.60;;
24173;SDS011;12324;48.146;11.502;2024-03-02T12:47:51;21.83;;;13.40;;
24173;SDS011;12324;48.146;11.502;2024-03-02T12:50:18;26.17;;;14.05;;
24173;SDS011;12324;48.146;11.502;2024-03-02T12:52:55;22.88;;;15.05;;
24173;SDS011;12324;48.146;11.502;2024-03-02T12:55:22;25.23;;;14.63;;
24173;SDS011;12324;48.146;11.502;2024-03-02T12:57:50;25.38;;;15.30;;
24173;SDS011;12324;48.146;11.502;2024-03-02T13:00:19;26.88;;;15.60;;
24173;SDS011;12324;48.146;11.502;2024-03-02T13:02:47;27.70;;;16.55;;
24173;SDS011;12324;48.146;11.502;2024-03-02T13:05:15;25.75;;;17.35;;
24173;SDS011;12324;48.146;11.502;2024-03-02T13:07:42;23.30;;;14.27;;
24173;SDS011;12324;48.146;11.502;2024-03-02T13:10:11;26.35;;;15.35;;
24173;SDS011;12324;48.146;11.502;2024-03-02T13:12:39;24.20;;;14.75;;
24173;SDS011;12324;48.146;11.502;2024-03-02T13:15:06;27.50;;;15.93;;
24173;SDS011;12324;48.146;11.502;2024-03-02T13:17:36;24.05;;;14.23;;
24173;SDS011;12324;48.146;11.502;2024-03-02T13:20:04;25.30;;;14.75;;
24173;SDS011;12324;48.146;11.502;2024-03-02T13:22:37;25.27;;;14.38;;
24173;SDS011;12324;48.146;11.502;2024-03-02T13:25:04;25.30;;;14.57;;
24173;SDS011;12324;48.146;11.502;2024-03-02T13:27:32;21.42;;;13.88;;
24173;SDS011;12324;48.146;11.502;2024-03-02T13:30:01;24.30;;;14.88;;
24173;SDS011;12324;48.146;11.502;2024-03-02T13:32:29;26.77;;;15.82;;
24173;SDS011;12324;48.146;11.502;2024-03-02T13:34:56;23.77;;;15.43;;
24173;SDS011;12324;48.146;11.502;2024-03-02T13:37:23;27.23;;;17.83;;
24173;SDS011;12324;48.146;11.502;2024-03-02T13:39:50;24.60;;;15.43;;
24173;SDS011;12324;48.146;11.502;2024-03-02T13:42:17;25.08;;;15.43;;
24173;SDS011;12324;48.146;11.502;2024-03-02T13:44:44;23.88;;;14.73;;
24173;SDS011;12324;48.146;11.502;2024-03-02T13:47:17;25.52;;;15.02;;
24173;SDS011;12324;48.146;11.502;2024-03-02T13:49:44;23.50;;;15.10;;
24173;SDS011;12324;48.146;11.502;2024-03-02T13:52:13;23.80;;;15.25;;
24173;SDS011;12324;48.146;11.502;2024-03-02T13:54:40;24.15;;;15.07;;
24173;SDS011;12324;48.146;11.502;2024-03-02T13:57:08;24.67;;;15.57;;
24173;SDS011;12324;48.146;11.502;2024-03-02T13:59:36;26.75;;;16.63;;
24173;SDS011;12324;48.146;11.502;2024-03-02T14:02:04;23.63;;;15.25;;
24173;SDS011;12324;48.146;11.502;2024-03-02T14:04:35;24.48;;;15.52;;
24173;SDS011;12324;48.146;11.502;2024-03-02T14:07:03;22.98;;;14.82;;
24173;SDS011;12324;48.146;11.502;2024-03-02T14:09:33;24.45;;;15.30;;
24173;SDS011;12324;48.146;11.502;2024-03-02T14:12:01;24.25;;;16.50;;
24173;SDS011;12324;48.146;11.502;2024-03-02T14:14:29;27.13;;;17.35;;
24173;SDS011;12324;48.146;11.502;2024-03-02T14:16:56;24.55;;;15.85;;
24173;SDS011;12324;48.146;11.502;2024-03-02T14:19:27;26.75;;;15.93;;
24173;SDS011;12324;48.146;11.502;2024-03-02T14:21:54;23.70;;;16.10;;
24173;SDS011;12324;48.146;11.502;2024-03-02T14:24:22;24.23;;;15.30;;
24173;SDS011;12324;48.146;11.502;2024-03-02T14:26:52;22.20;;;14.20;;